createdAt,value
2017-09-02T00:01:19.300Z,11.77
2017-09-02T00:03:46.833Z,11.67
2017-09-02T00:06:14.362Z,11.58
2017-09-02T00:08:41.896Z,11.51
2017-09-02T00:11:09.427Z,11.58
2017-09-02T00:13:36.953Z,11.57
2017-09-02T00:16:04.491Z,11.76
2017-09-02T00:18:32.005Z,11.64
2017-09-02T00:20:59.534Z,11.51
2017-09-02T00:23:27.059Z,11.45
2017-09-02T00:25:54.580Z,11.47
2017-09-02T00:28:22.118Z,11.49
2017-09-02T00:30:49.641Z,11.55
2017-09-02T00:33:17.164Z,11.54
2017-09-02T00:35:44.690Z,11.50
2017-09-02T00:38:12.212Z,11.47
2017-09-02T00:40:39.786Z,11.51
2017-09-02T00:43:07.328Z,11.48
2017-09-02T00:45:34.841Z,11.52
2017-09-02T00:48:02.383Z,11.46
2017-09-02T00:50:29.902Z,11.48
2017-09-02T00:52:57.435Z,11.51
2017-09-02T00:55:24.959Z,11.52
2017-09-02T00:57:52.484Z,11.48
2017-09-02T01:00:20.020Z,11.37
2017-09-02T01:02:47.542Z,11.36
2017-09-02T01:05:15.066Z,11.38
2017-09-02T01:07:42.601Z,11.45
2017-09-02T01:10:10.122Z,11.56
2017-09-02T01:12:37.756Z,11.46
2017-09-02T01:15:05.300Z,11.54
2017-09-02T01:17:32.822Z,11.60
2017-09-02T01:20:00.340Z,11.45
2017-09-02T01:22:27.861Z,11.35
2017-09-02T01:24:55.371Z,11.24
2017-09-02T01:27:22.918Z,11.16
2017-09-02T01:29:50.496Z,11.33
2017-09-02T01:32:18.035Z,11.41
2017-09-02T01:34:45.569Z,11.49
2017-09-02T01:37:13.102Z,11.42
2017-09-02T01:39:40.615Z,11.33
2017-09-02T01:42:08.155Z,11.37
2017-09-02T01:44:35.678Z,11.29
2017-09-02T01:47:03.934Z,11.27
2017-09-02T01:49:31.479Z,11.34
2017-09-02T01:51:59.006Z,11.42
2017-09-02T01:54:26.550Z,11.40
2017-09-02T01:56:54.068Z,11.45
2017-09-02T01:59:21.575Z,11.27
2017-09-02T02:01:49.098Z,11.11
2017-09-02T02:04:16.611Z,11.04
2017-09-02T02:06:44.156Z,11.07
2017-09-02T02:09:11.682Z,11.03
2017-09-02T02:11:39.199Z,10.94
2017-09-02T02:14:06.748Z,10.89
2017-09-02T02:16:34.278Z,10.96
2017-09-02T02:19:01.853Z,10.93
2017-09-02T02:21:29.383Z,10.91
2017-09-02T02:23:56.932Z,10.95
2017-09-02T02:26:24.452Z,11.03
2017-09-02T02:28:51.995Z,11.12
2017-09-02T02:31:19.534Z,11.18
2017-09-02T02:33:47.066Z,11.22
2017-09-02T02:36:14.580Z,11.04
2017-09-02T02:38:42.092Z,11.05
2017-09-02T02:41:09.616Z,11.06
2017-09-02T02:43:37.139Z,11.06
2017-09-02T02:46:04.664Z,11.07
2017-09-02T02:48:32.183Z,10.96
2017-09-02T02:50:59.724Z,10.96
2017-09-02T02:53:27.243Z,11.00
2017-09-02T02:55:54.754Z,11.23
2017-09-02T02:58:22.299Z,11.18
2017-09-02T03:00:49.815Z,11.10
2017-09-02T03:03:17.364Z,10.98
2017-09-02T03:05:44.890Z,10.94
2017-09-02T03:08:12.417Z,10.87
2017-09-02T03:10:39.973Z,10.88
2017-09-02T03:13:07.498Z,10.94
2017-09-02T03:15:35.056Z,10.90
2017-09-02T03:18:02.587Z,11.02
2017-09-02T03:20:30.100Z,10.98
2017-09-02T03:22:57.627Z,10.98
2017-09-02T03:25:25.147Z,10.98
2017-09-02T03:27:52.670Z,10.99
2017-09-02T03:30:20.188Z,11.01
2017-09-02T03:32:47.768Z,11.04
2017-09-02T03:35:15.318Z,11.06
2017-09-02T03:37:42.833Z,11.05
2017-09-02T03:40:10.359Z,11.10
2017-09-02T03:42:37.876Z,11.11
2017-09-02T03:45:05.393Z,11.16
2017-09-02T03:47:33.082Z,11.25
2017-09-02T03:50:00.609Z,11.19
2017-09-02T03:52:28.132Z,11.13
2017-09-02T03:54:55.677Z,11.13
2017-09-02T03:57:23.224Z,11.11
2017-09-02T03:59:50.769Z,11.06
2017-09-02T04:02:18.301Z,11.10
2017-09-02T04:04:45.845Z,10.89
2017-09-02T04:07:13.379Z,10.94
2017-09-02T04:09:40.902Z,10.99
2017-09-02T04:12:08.436Z,10.92
2017-09-02T04:14:36.079Z,10.76
2017-09-02T04:17:03.605Z,10.81
2017-09-02T04:19:31.110Z,10.61
2017-09-02T04:21:58.672Z,10.66
2017-09-02T04:24:26.209Z,10.61
2017-09-02T04:26:53.752Z,10.72
2017-09-02T04:29:21.277Z,10.72
2017-09-02T04:31:48.790Z,10.89
2017-09-02T04:34:16.318Z,11.07
2017-09-02T04:36:43.852Z,11.08
2017-09-02T04:39:11.372Z,11.07
2017-09-02T04:41:38.895Z,10.95
2017-09-02T04:44:06.436Z,10.96
2017-09-02T04:46:33.977Z,11.04
2017-09-02T04:49:01.500Z,11.19
2017-09-02T04:51:29.011Z,11.29
2017-09-02T04:53:56.537Z,11.25
2017-09-02T04:56:24.059Z,11.17
2017-09-02T04:58:51.602Z,11.22
2017-09-02T05:01:19.143Z,11.16
2017-09-02T05:03:46.677Z,11.22
2017-09-02T05:06:14.200Z,11.26
2017-09-02T05:08:41.885Z,11.35
2017-09-02T05:11:09.446Z,11.39
2017-09-02T05:13:36.967Z,11.40
2017-09-02T05:16:04.486Z,11.46
2017-09-02T05:18:32.010Z,11.49
2017-09-02T05:20:59.550Z,11.58
2017-09-02T05:23:27.063Z,11.49
2017-09-02T05:25:54.588Z,11.48
2017-09-02T05:28:22.117Z,11.66
2017-09-02T05:30:49.642Z,11.58
2017-09-02T05:33:17.180Z,11.52
2017-09-02T05:35:44.720Z,11.62
2017-09-02T05:38:12.298Z,11.63
2017-09-02T05:40:39.834Z,11.54
2017-09-02T05:43:07.364Z,11.74
2017-09-02T05:45:34.896Z,11.85
2017-09-02T05:48:02.428Z,11.89
2017-09-02T05:50:29.960Z,12.06
2017-09-02T05:52:57.487Z,11.99
2017-09-02T05:55:25.010Z,12.15
2017-09-02T05:57:52.524Z,12.34
2017-09-02T06:00:20.043Z,12.26
2017-09-02T06:02:47.552Z,12.41
2017-09-02T06:05:15.088Z,12.44
2017-09-02T06:07:42.621Z,12.39
2017-09-02T06:10:10.152Z,12.42
2017-09-02T06:12:37.695Z,12.37
2017-09-02T06:15:05.214Z,12.42
2017-09-02T06:17:32.746Z,12.44
2017-09-02T06:20:00.275Z,12.35
2017-09-02T06:22:27.812Z,12.41
2017-09-02T06:24:55.340Z,12.50
2017-09-02T06:27:22.876Z,12.49
2017-09-02T06:29:50.410Z,12.38
2017-09-02T06:32:17.931Z,12.42
2017-09-02T06:34:45.464Z,12.62
2017-09-02T06:37:12.984Z,12.56
2017-09-02T06:39:40.551Z,12.70
2017-09-02T06:42:08.068Z,12.57
2017-09-02T06:44:35.594Z,12.67
2017-09-02T06:47:03.119Z,12.63
2017-09-02T06:49:31.145Z,12.63
2017-09-02T06:51:58.697Z,12.71
2017-09-02T06:54:26.218Z,12.80
2017-09-02T06:56:53.740Z,12.83
2017-09-02T06:59:21.279Z,12.72
2017-09-02T07:01:48.826Z,12.93
2017-09-02T07:04:16.345Z,12.93
2017-09-02T07:06:43.877Z,12.83
2017-09-02T07:09:11.400Z,12.90
2017-09-02T07:11:38.927Z,13.14
2017-09-02T07:14:06.498Z,13.10
2017-09-02T07:16:34.017Z,13.26
2017-09-02T07:19:01.537Z,13.48
2017-09-02T07:21:29.054Z,13.78
2017-09-02T07:23:56.577Z,13.77
2017-09-02T07:26:24.093Z,13.62
2017-09-02T07:28:51.606Z,13.64
2017-09-02T07:31:19.140Z,13.96
2017-09-02T07:33:46.666Z,14.15
2017-09-02T07:36:14.192Z,14.24
2017-09-02T07:38:41.734Z,13.72
2017-09-02T07:41:09.277Z,13.49
2017-09-02T07:43:36.789Z,13.64
2017-09-02T07:46:04.338Z,13.55
2017-09-02T07:48:31.874Z,13.56
2017-09-02T07:50:59.397Z,13.33
2017-09-02T07:53:26.903Z,13.93
2017-09-02T07:55:54.431Z,14.02
2017-09-02T07:58:21.987Z,14.08
2017-09-02T08:00:49.505Z,14.35
2017-09-02T08:03:17.024Z,14.27
2017-09-02T08:05:44.550Z,14.32
2017-09-02T08:08:12.073Z,14.18
2017-09-02T08:10:39.594Z,14.45
2017-09-02T08:13:07.123Z,14.39
2017-09-02T08:15:34.663Z,14.22
2017-09-02T08:18:02.199Z,14.12
2017-09-02T08:20:29.724Z,14.36
2017-09-02T08:22:57.271Z,14.29
2017-09-02T08:25:24.792Z,14.67
2017-09-02T08:27:52.329Z,15.01
2017-09-02T08:30:19.856Z,15.00
2017-09-02T08:32:47.404Z,14.96
2017-09-02T08:35:14.931Z,14.61
2017-09-02T08:37:42.466Z,14.98
2017-09-02T08:40:10.002Z,15.26
2017-09-02T08:42:37.550Z,15.06
2017-09-02T08:45:05.069Z,15.22
2017-09-02T08:47:32.693Z,15.31
2017-09-02T08:50:00.224Z,15.54
2017-09-02T08:52:27.877Z,15.80
2017-09-02T08:54:55.387Z,15.54
2017-09-02T08:57:22.947Z,16.01
2017-09-02T08:59:50.460Z,15.82
2017-09-02T09:02:18.021Z,16.23
2017-09-02T09:04:45.539Z,16.74
2017-09-02T09:07:13.060Z,15.55
2017-09-02T09:09:40.592Z,16.43
2017-09-02T09:12:08.225Z,16.41
2017-09-02T09:14:35.759Z,17.02
2017-09-02T09:17:03.293Z,17.05
2017-09-02T09:19:30.824Z,16.87
2017-09-02T09:21:58.359Z,17.13
2017-09-02T09:24:25.880Z,16.52
2017-09-02T09:26:53.420Z,17.73
2017-09-02T09:29:20.959Z,17.88
2017-09-02T09:31:48.486Z,17.94
2017-09-02T09:34:16.012Z,17.51
2017-09-02T09:36:43.550Z,18.63
2017-09-02T09:39:11.121Z,18.38
2017-09-02T09:41:38.637Z,18.40
2017-09-02T09:44:06.151Z,17.75
2017-09-02T09:46:33.676Z,18.29
2017-09-02T09:49:01.179Z,18.46
2017-09-02T09:51:28.708Z,18.88
2017-09-02T09:53:56.249Z,19.07
2017-09-02T09:56:23.772Z,19.93
2017-09-02T09:58:51.294Z,16.98
2017-09-02T10:01:18.825Z,16.52
2017-09-02T10:03:46.362Z,17.53
2017-09-02T10:06:13.883Z,16.93
2017-09-02T10:08:41.390Z,16.60
2017-09-02T10:11:08.916Z,17.18
2017-09-02T10:13:36.462Z,16.56
2017-09-02T10:16:03.992Z,16.54
2017-09-02T10:18:31.499Z,16.54
2017-09-02T10:20:59.027Z,16.95
2017-09-02T10:23:26.554Z,17.08
2017-09-02T10:25:54.068Z,17.55
2017-09-02T10:28:21.572Z,18.12
2017-09-02T10:30:49.083Z,18.32
2017-09-02T10:33:16.593Z,18.55
2017-09-02T10:35:44.108Z,18.77
2017-09-02T10:38:11.640Z,19.58
2017-09-02T10:40:39.168Z,19.24
2017-09-02T10:43:06.686Z,19.63
2017-09-02T10:45:34.268Z,19.66
2017-09-02T10:48:01.826Z,18.81
2017-09-02T10:50:29.343Z,20.21
2017-09-02T10:52:56.855Z,18.10
2017-09-02T10:55:24.365Z,17.92
2017-09-02T10:57:51.907Z,19.01
2017-09-02T11:00:19.443Z,18.69
2017-09-02T11:02:46.980Z,18.90
2017-09-02T11:05:14.510Z,18.28
2017-09-02T11:07:42.013Z,18.13
2017-09-02T11:10:09.540Z,17.87
2017-09-02T11:12:37.080Z,18.96
2017-09-02T11:15:04.603Z,17.89
2017-09-02T11:17:32.147Z,17.56
2017-09-02T11:19:59.658Z,17.56
2017-09-02T11:22:27.200Z,17.29
2017-09-02T11:24:55.615Z,18.52
2017-09-02T11:27:23.197Z,18.71
2017-09-02T11:29:50.725Z,18.53
2017-09-02T11:32:18.252Z,18.12
2017-09-02T11:34:45.809Z,19.56
2017-09-02T11:37:13.334Z,17.63
2017-09-02T11:39:40.844Z,17.60
2017-09-02T11:42:08.373Z,18.28
2017-09-02T11:44:35.911Z,17.99
2017-09-02T11:47:03.430Z,17.48
2017-09-02T11:49:30.952Z,18.47
2017-09-02T11:51:58.579Z,18.00
2017-09-02T11:54:26.115Z,17.73
2017-09-02T11:56:53.697Z,18.08
2017-09-02T11:59:21.214Z,17.71
2017-09-02T12:01:48.742Z,17.87
2017-09-02T12:04:16.255Z,18.43
2017-09-02T12:06:43.796Z,18.23
2017-09-02T12:09:11.328Z,18.39
2017-09-02T12:11:38.841Z,17.93
2017-09-02T12:14:06.352Z,17.69
2017-09-02T12:16:33.964Z,17.77
2017-09-02T12:19:01.508Z,19.94
2017-09-02T12:21:29.025Z,19.52
2017-09-02T12:23:56.539Z,18.37
2017-09-02T12:26:24.064Z,18.95
2017-09-02T12:28:51.595Z,20.25
2017-09-02T12:31:19.108Z,20.73
2017-09-02T12:33:46.636Z,21.48
2017-09-02T12:36:14.143Z,19.81
2017-09-02T12:38:41.654Z,22.19
2017-09-02T12:41:09.171Z,23.15
2017-09-02T12:43:36.719Z,22.29
2017-09-02T12:46:04.223Z,24.43
2017-09-02T12:48:31.754Z,24.66
2017-09-02T12:50:59.296Z,23.04
2017-09-02T12:53:26.802Z,22.34
2017-09-02T12:55:54.303Z,24.36
2017-09-02T12:58:21.853Z,24.79
2017-09-02T13:00:49.367Z,25.66
2017-09-02T13:03:16.913Z,23.49
2017-09-02T13:05:44.446Z,22.28
2017-09-02T13:08:11.965Z,20.04
2017-09-02T13:10:39.495Z,19.68
2017-09-02T13:13:07.047Z,21.44
2017-09-02T13:15:34.553Z,23.15
2017-09-02T13:18:02.065Z,24.96
2017-09-02T13:20:29.595Z,23.38
2017-09-02T13:22:57.117Z,21.12
2017-09-02T13:25:24.628Z,23.93
2017-09-02T13:27:52.132Z,21.77
2017-09-02T13:30:19.644Z,21.75
2017-09-02T13:32:47.159Z,21.86
2017-09-02T13:35:14.684Z,24.31
2017-09-02T13:37:42.225Z,25.68
2017-09-02T13:40:09.750Z,24.83
2017-09-02T13:42:37.263Z,23.30
2017-09-02T13:45:04.781Z,24.54
2017-09-02T13:47:32.303Z,21.81
2017-09-02T13:49:59.832Z,21.14
2017-09-02T13:52:27.411Z,20.43
2017-09-02T13:54:54.920Z,19.35
2017-09-02T13:57:22.443Z,19.21
2017-09-02T13:59:49.973Z,18.80
2017-09-02T14:02:17.480Z,18.60
2017-09-02T14:04:45.027Z,18.70
2017-09-02T14:07:12.546Z,19.49
2017-09-02T14:09:40.055Z,20.33
2017-09-02T14:12:07.593Z,18.83
2017-09-02T14:14:35.147Z,18.60
2017-09-02T14:17:02.655Z,19.07
2017-09-02T14:19:30.185Z,19.25
2017-09-02T14:21:57.699Z,19.26
2017-09-02T14:24:25.205Z,19.20
2017-09-02T14:26:52.769Z,18.86
2017-09-02T14:29:20.284Z,18.74
2017-09-02T14:31:47.819Z,19.04
2017-09-02T14:34:15.360Z,18.76
2017-09-02T14:36:42.881Z,17.81
2017-09-02T14:39:10.400Z,17.85
2017-09-02T14:41:37.918Z,18.49
2017-09-02T14:44:05.493Z,18.16
2017-09-02T14:46:33.011Z,17.89
2017-09-02T14:49:00.516Z,18.47
2017-09-02T14:51:28.032Z,18.06
2017-09-02T14:53:55.568Z,18.06
2017-09-02T14:56:23.092Z,18.73
2017-09-02T14:58:50.623Z,18.09
2017-09-02T15:01:18.131Z,18.40
2017-09-02T15:03:45.647Z,18.55
2017-09-02T15:06:13.180Z,17.91
2017-09-02T15:08:40.684Z,18.08
2017-09-02T15:11:08.211Z,17.93
2017-09-02T15:13:35.711Z,17.79
2017-09-02T15:16:03.226Z,18.05
2017-09-02T15:18:30.740Z,18.42
2017-09-02T15:20:58.312Z,18.04
2017-09-02T15:23:25.830Z,17.71
2017-09-02T15:25:53.341Z,18.27
2017-09-02T15:28:20.888Z,17.81
2017-09-02T15:30:48.414Z,18.25
2017-09-02T15:33:15.964Z,18.30
2017-09-02T15:35:43.493Z,18.44
2017-09-02T15:38:11.027Z,17.97
2017-09-02T15:40:38.552Z,17.85
2017-09-02T15:43:06.059Z,17.62
2017-09-02T15:45:33.582Z,17.83
2017-09-02T15:48:01.124Z,17.91
2017-09-02T15:50:28.699Z,17.61
2017-09-02T15:52:56.212Z,18.16
2017-09-02T15:55:23.732Z,18.33
2017-09-02T15:57:51.267Z,18.31
2017-09-02T16:00:18.794Z,18.61
2017-09-02T16:02:46.336Z,18.42
2017-09-02T16:05:13.851Z,18.46
2017-09-02T16:07:41.404Z,18.34
2017-09-02T16:10:08.924Z,18.39
2017-09-02T16:12:36.446Z,18.35
2017-09-02T16:15:03.970Z,18.22
2017-09-02T16:17:31.486Z,18.07
2017-09-02T16:19:58.995Z,18.02
2017-09-02T16:22:26.506Z,18.07
2017-09-02T16:24:54.022Z,18.16
2017-09-02T16:27:21.540Z,18.01
2017-09-02T16:29:49.091Z,17.48
2017-09-02T16:32:16.607Z,17.79
2017-09-02T16:34:44.118Z,17.47
2017-09-02T16:37:11.638Z,17.54
2017-09-02T16:39:39.154Z,17.37
2017-09-02T16:42:06.659Z,17.39
2017-09-02T16:44:34.200Z,17.34
2017-09-02T16:47:01.724Z,17.53
2017-09-02T16:49:29.264Z,17.54
2017-09-02T16:51:56.804Z,17.45
2017-09-02T16:54:24.341Z,17.51
2017-09-02T16:56:51.851Z,17.61
2017-09-02T16:59:19.351Z,17.55
2017-09-02T17:01:46.868Z,17.25
2017-09-02T17:04:14.458Z,17.12
2017-09-02T17:06:42.016Z,17.00
2017-09-02T17:09:09.527Z,16.95
2017-09-02T17:11:37.052Z,16.76
2017-09-02T17:14:04.586Z,16.76
2017-09-02T17:16:32.112Z,16.59
2017-09-02T17:18:59.646Z,16.55
2017-09-02T17:21:27.184Z,16.65
2017-09-02T17:23:54.724Z,16.41
2017-09-02T17:26:22.232Z,16.33
2017-09-02T17:28:49.749Z,15.98
2017-09-02T17:31:17.345Z,15.98
2017-09-02T17:33:44.884Z,16.06
2017-09-02T17:36:12.416Z,16.12
2017-09-02T17:38:39.924Z,15.97
2017-09-02T17:41:07.459Z,15.99
2017-09-02T17:43:34.980Z,15.92
2017-09-02T17:46:02.537Z,15.78
2017-09-02T17:48:30.055Z,15.56
2017-09-02T17:50:57.595Z,15.22
2017-09-02T17:53:25.107Z,15.28
2017-09-02T17:55:52.647Z,15.14
2017-09-02T17:58:20.157Z,15.14
2017-09-02T18:00:47.668Z,15.26
2017-09-02T18:03:15.186Z,14.80
2017-09-02T18:05:42.719Z,14.70
2017-09-02T18:08:10.243Z,14.72
2017-09-02T18:10:37.749Z,14.83
2017-09-02T18:13:05.267Z,14.94
2017-09-02T18:15:32.785Z,14.87
2017-09-02T18:18:00.331Z,14.89
2017-09-02T18:20:27.872Z,14.89
2017-09-02T18:22:55.399Z,14.84
2017-09-02T18:25:22.897Z,14.66
2017-09-02T18:27:50.403Z,14.56
2017-09-02T18:30:17.927Z,14.41
2017-09-02T18:32:45.435Z,14.27
2017-09-02T18:35:12.941Z,13.88
2017-09-02T18:37:40.457Z,13.68
2017-09-02T18:40:07.996Z,13.56
2017-09-02T18:42:35.510Z,13.60
2017-09-02T18:45:03.073Z,13.39
2017-09-02T18:47:30.622Z,13.27
2017-09-02T18:49:58.192Z,13.56
2017-09-02T18:52:25.712Z,13.05
2017-09-02T18:54:53.250Z,12.91
2017-09-02T18:57:20.790Z,12.83
2017-09-02T18:59:48.305Z,12.90
2017-09-02T19:02:15.839Z,12.87
2017-09-02T19:04:43.380Z,12.91
2017-09-02T19:07:10.920Z,12.95
2017-09-02T19:09:38.453Z,12.90
2017-09-02T19:12:05.968Z,12.99
2017-09-02T19:14:33.485Z,13.03
2017-09-02T19:17:01.031Z,13.01
2017-09-02T19:19:28.556Z,13.15
2017-09-02T19:21:56.072Z,13.15
2017-09-02T19:24:23.595Z,13.19
2017-09-02T19:26:51.224Z,13.11
2017-09-02T19:29:18.792Z,13.12
2017-09-02T19:31:46.356Z,13.03
2017-09-02T19:34:13.904Z,13.10
2017-09-02T19:36:41.418Z,13.15
2017-09-02T19:39:08.935Z,13.25
2017-09-02T19:41:36.503Z,13.27
2017-09-02T19:44:04.023Z,13.22
2017-09-02T19:46:31.531Z,12.99
2017-09-02T19:48:59.049Z,12.96
2017-09-02T19:51:26.604Z,12.80
2017-09-02T19:53:54.132Z,12.94
2017-09-02T19:56:21.699Z,12.85
2017-09-02T19:58:49.240Z,13.03
2017-09-02T20:01:16.780Z,12.82
2017-09-02T20:03:44.305Z,12.96
2017-09-02T20:06:11.829Z,13.17
2017-09-02T20:08:39.355Z,12.84
2017-09-02T20:11:06.985Z,12.84
2017-09-02T20:13:34.507Z,12.67
2017-09-02T20:16:02.053Z,12.87
2017-09-02T20:18:29.569Z,12.77
2017-09-02T20:20:57.136Z,12.62
2017-09-02T20:23:24.732Z,12.58
2017-09-02T20:25:52.285Z,12.83
2017-09-02T20:28:19.819Z,12.88
2017-09-02T20:30:47.327Z,12.90
2017-09-02T20:33:14.840Z,12.84
2017-09-02T20:35:42.363Z,12.83
2017-09-02T20:38:09.902Z,13.11
2017-09-02T20:40:37.440Z,12.91
2017-09-02T20:43:05.028Z,12.83
2017-09-02T20:45:32.643Z,12.86
2017-09-02T20:48:00.176Z,12.88
2017-09-02T20:50:27.817Z,12.84
2017-09-02T21:35:25.695Z,16.65
2017-09-02T21:37:53.218Z,15.89
2017-09-02T21:40:21.086Z,15.13
2017-09-02T21:42:48.742Z,14.43
2017-09-02T21:45:16.276Z,14.05
2017-09-02T21:47:43.790Z,13.83
2017-09-02T21:50:11.295Z,13.62
2017-09-02T21:52:38.816Z,13.46
2017-09-02T21:55:06.359Z,13.32
2017-09-02T21:57:33.892Z,13.23
2017-09-02T22:00:01.402Z,13.18
2017-09-02T22:02:28.945Z,13.06
2017-09-02T22:04:56.465Z,13.00
2017-09-02T22:07:24.009Z,12.98
2017-09-02T22:09:51.561Z,12.93
2017-09-02T22:12:19.088Z,12.84
2017-09-02T22:14:46.593Z,12.84
2017-09-02T22:17:14.113Z,12.83
2017-09-02T22:19:41.654Z,12.85
2017-09-02T22:22:09.175Z,12.73
2017-09-02T22:24:37.040Z,12.65
2017-09-02T22:27:04.553Z,12.66
2017-09-02T22:29:32.078Z,12.51
2017-09-02T22:31:59.580Z,12.50
2017-09-02T22:34:27.102Z,12.52
2017-09-02T22:36:54.641Z,12.37
2017-09-02T22:39:22.151Z,12.35
2017-09-02T22:41:49.683Z,12.25
2017-09-02T22:44:17.197Z,12.20
2017-09-02T22:46:44.738Z,12.15
2017-09-02T22:49:12.319Z,12.08
2017-09-02T22:51:39.871Z,12.04
2017-09-02T22:54:07.378Z,12.06
2017-09-02T22:56:34.911Z,11.97
2017-09-02T22:59:02.425Z,11.88
2017-09-02T23:01:29.935Z,11.84
2017-09-02T23:03:57.435Z,11.78
2017-09-02T23:06:24.959Z,11.68
2017-09-02T23:08:55.021Z,11.68
2017-09-02T23:11:22.550Z,11.59
2017-09-02T23:13:50.074Z,11.49
2017-09-02T23:16:17.594Z,11.37
2017-09-02T23:18:45.132Z,11.28
2017-09-02T23:21:12.640Z,11.18
2017-09-02T23:23:40.163Z,11.13
2017-09-02T23:26:07.670Z,11.03
2017-09-02T23:28:35.195Z,10.95
2017-09-02T23:31:02.711Z,10.88
2017-09-02T23:33:30.234Z,10.83
2017-09-02T23:35:57.773Z,10.77
2017-09-02T23:38:25.364Z,10.72
2017-09-02T23:40:52.999Z,10.61
2017-09-02T23:43:20.536Z,10.56
2017-09-02T23:45:48.072Z,10.60
2017-09-02T23:48:15.592Z,10.59
2017-09-02T23:50:43.105Z,10.59
2017-09-02T23:53:10.606Z,10.63
2017-09-02T23:55:38.122Z,10.51
2017-09-02T23:58:05.658Z,10.47
